Norton, VT (05907)

6:11 PM EST on February 14, 2016 (GMT -0500)
Island Pond | | Change Station
CLOSE
Current Station
Personal Weather Station
Location: Brighton, VT
Elevation: 1204 ft
Nearby Weather Stations

Elev 1204 ft 44.81 °N, 71.86 °W | Updated 30 seconds ago

Clear
Clear
-9.0 °F
Feels Like -9 °F
N
3.0
Wind Variable Wind from SW
Gusts 5.0 mph

Today
High -- | Low -- °F
--% Chance of Precip.
Yesterday
High -- | Low -- °F
Precip. -- in
Pressure 30.41 in
Visibility 10.0 miles
Clouds Clear
Windchill -9 °F
Dew Point -18 °F
Humidity 64%
Rainfall 0.00 in
Snow Depth Not available.
6:50 AM 5:13 PM
Waxing Crescent, 46% visible
METAR KEFK 142255Z AUTO 34003KT 10SM CLR M22/M29 A3041 RMK AO2 T12251290
Pressure 30.41 in
Visibility 10.0 miles
Clouds Clear
Windchill -9 °F
Dew Point -18 °F
Humidity 64%
Rainfall 0.00 in
Snow Depth Not available.
6:50 AM 5:13 PM
Waxing Crescent, 46% visible
METAR KEFK 142255Z AUTO 34003KT 10SM CLR M22/M29 A3041 RMK AO2 T12251290

10-Day Weather Forecast

Almanac

Astronomy

Feb. 14, 2016 Rise Set
Actual Time
Civil Twilight
Nautical Twilight
Astronomical Twilight
Moon
Length of Visible Light
Length of Day
Tomorrow will be .
, % of the Moon is Illuminated

Today's Extremes

State Highs State Lows

Community

WunderPhotos

Upload Photos

1,892,913 photos uploaded!

WunderBlog® & News

Nearby

Air Quality

  Air Quality AQ Index Pollutant
Not available.

Snow Depth

Station Depth Elevation

Earthquake Activity

City Distance Mag. Time & Date
Minimum magnitude displayed is 2.5.

Coastal Water Temperatures

Place Temperature

Stations

Nearby Weather Stations

Station Location Temp. Windchill Dew Point Humidity Wind Precip. Elev Updated Type
                   

Watches & Warnings

There are currently no watches in effect.